sensor_id;sensor_type;location;lat;lon;timestamp;P1;durP1;ratioP1;P2;durP2;ratioP2
14992;SDS011;7592;51.088;13.732;2022-12-10T00:01:19;48.10;;;28.07;;
14992;SDS011;7592;51.088;13.732;2022-12-10T00:06:12;48.40;;;27.93;;
14992;SDS011;7592;51.088;13.732;2022-12-10T00:11:06;46.70;;;28.30;;
14992;SDS011;7592;51.088;13.732;2022-12-10T00:16:00;45.00;;;27.73;;
14992;SDS011;7592;51.088;13.732;2022-12-10T00:20:53;45.37;;;27.80;;
14992;SDS011;7592;51.088;13.732;2022-12-10T00:25:45;46.17;;;27.47;;
14992;SDS011;7592;51.088;13.732;2022-12-10T00:30:38;46.47;;;27.27;;
14992;SDS011;7592;51.088;13.732;2022-12-10T00:35:30;45.80;;;27.97;;
14992;SDS011;7592;51.088;13.732;2022-12-10T00:40:22;47.20;;;27.37;;
14992;SDS011;7592;51.088;13.732;2022-12-10T00:45:15;43.07;;;27.33;;
14992;SDS011;7592;51.088;13.732;2022-12-10T00:50:07;40.97;;;25.80;;
14992;SDS011;7592;51.088;13.732;2022-12-10T00:55:01;44.57;;;26.67;;
14992;SDS011;7592;51.088;13.732;2022-12-10T00:59:53;44.57;;;27.43;;
14992;SDS011;7592;51.088;13.732;2022-12-10T01:04:45;44.10;;;27.07;;
14992;SDS011;7592;51.088;13.732;2022-12-10T01:09:37;47.37;;;27.70;;
14992;SDS011;7592;51.088;13.732;2022-12-10T01:14:30;47.37;;;29.33;;
14992;SDS011;7592;51.088;13.732;2022-12-10T01:19:24;43.73;;;28.77;;
14992;SDS011;7592;51.088;13.732;2022-12-10T01:24:17;41.57;;;26.47;;
14992;SDS011;7592;51.088;13.732;2022-12-10T01:29:09;46.47;;;26.80;;
14992;SDS011;7592;51.088;13.732;2022-12-10T01:34:04;44.80;;;26.73;;
14992;SDS011;7592;51.088;13.732;2022-12-10T01:38:57;42.93;;;25.93;;
14992;SDS011;7592;51.088;13.732;2022-12-10T01:43:55;41.33;;;25.47;;
14992;SDS011;7592;51.088;13.732;2022-12-10T01:49:22;48.03;;;25.63;;
14992;SDS011;7592;51.088;13.732;2022-12-10T01:54:30;44.27;;;25.47;;
14992;SDS011;7592;51.088;13.732;2022-12-10T01:59:24;46.03;;;26.03;;
14992;SDS011;7592;51.088;13.732;2022-12-10T02:09:21;40.17;;;24.57;;
14992;SDS011;7592;51.088;13.732;2022-12-10T02:14:53;47.07;;;26.10;;
14992;SDS011;7592;51.088;13.732;2022-12-10T02:25:07;42.40;;;24.40;;
14992;SDS011;7592;51.088;13.732;2022-12-10T02:30:03;38.90;;;23.50;;
14992;SDS011;7592;51.088;13.732;2022-12-10T02:35:00;41.57;;;23.97;;
14992;SDS011;7592;51.088;13.732;2022-12-10T02:39:59;37.87;;;22.60;;
14992;SDS011;7592;51.088;13.732;2022-12-10T02:45:04;38.40;;;22.60;;
14992;SDS011;7592;51.088;13.732;2022-12-10T02:49:59;38.33;;;22.77;;
14992;SDS011;7592;51.088;13.732;2022-12-10T02:54:53;38.27;;;23.33;;
14992;SDS011;7592;51.088;13.732;2022-12-10T03:10:04;36.77;;;22.30;;
14992;SDS011;7592;51.088;13.732;2022-12-10T03:15:19;38.70;;;23.90;;
14992;SDS011;7592;51.088;13.732;2022-12-10T03:20:14;40.97;;;23.37;;
14992;SDS011;7592;51.088;13.732;2022-12-10T03:25:08;39.87;;;24.07;;
14992;SDS011;7592;51.088;13.732;2022-12-10T03:30:03;43.07;;;26.17;;
14992;SDS011;7592;51.088;13.732;2022-12-10T03:34:57;44.17;;;24.63;;
14992;SDS011;7592;51.088;13.732;2022-12-10T03:39:51;39.50;;;23.03;;
14992;SDS011;7592;51.088;13.732;2022-12-10T03:44:43;42.60;;;23.53;;
14992;SDS011;7592;51.088;13.732;2022-12-10T03:49:35;43.00;;;24.80;;
14992;SDS011;7592;51.088;13.732;2022-12-10T03:54:27;38.50;;;22.83;;
14992;SDS011;7592;51.088;13.732;2022-12-10T03:59:20;37.57;;;23.60;;
14992;SDS011;7592;51.088;13.732;2022-12-10T04:04:12;37.60;;;22.60;;
14992;SDS011;7592;51.088;13.732;2022-12-10T04:09:04;42.40;;;23.90;;
14992;SDS011;7592;51.088;13.732;2022-12-10T04:13:56;36.17;;;23.20;;
14992;SDS011;7592;51.088;13.732;2022-12-10T04:19:08;53.03;;;39.17;;
14992;SDS011;7592;51.088;13.732;2022-12-10T04:24:02;40.83;;;26.67;;
14992;SDS011;7592;51.088;13.732;2022-12-10T04:29:13;38.70;;;23.47;;
14992;SDS011;7592;51.088;13.732;2022-12-10T04:34:04;39.27;;;23.43;;
14992;SDS011;7592;51.088;13.732;2022-12-10T04:38:56;37.17;;;23.73;;
14992;SDS011;7592;51.088;13.732;2022-12-10T04:43:48;40.27;;;22.00;;
14992;SDS011;7592;51.088;13.732;2022-12-10T04:48:40;39.73;;;23.47;;
14992;SDS011;7592;51.088;13.732;2022-12-10T04:53:32;37.20;;;22.00;;
14992;SDS011;7592;51.088;13.732;2022-12-10T04:58:24;37.17;;;21.93;;
14992;SDS011;7592;51.088;13.732;2022-12-10T05:03:22;37.40;;;21.23;;
14992;SDS011;7592;51.088;13.732;2022-12-10T05:08:14;38.57;;;22.77;;
14992;SDS011;7592;51.088;13.732;2022-12-10T05:13:06;35.87;;;21.17;;
14992;SDS011;7592;51.088;13.732;2022-12-10T05:17:57;39.13;;;23.13;;
14992;SDS011;7592;51.088;13.732;2022-12-10T05:22:49;39.63;;;23.20;;
14992;SDS011;7592;51.088;13.732;2022-12-10T05:28:01;38.67;;;23.47;;
14992;SDS011;7592;51.088;13.732;2022-12-10T05:32:53;36.93;;;21.43;;
14992;SDS011;7592;51.088;13.732;2022-12-10T05:37:45;39.97;;;22.37;;
14992;SDS011;7592;51.088;13.732;2022-12-10T05:42:37;36.27;;;21.37;;
14992;SDS011;7592;51.088;13.732;2022-12-10T05:47:29;40.83;;;22.20;;
14992;SDS011;7592;51.088;13.732;2022-12-10T05:52:21;39.23;;;20.93;;
14992;SDS011;7592;51.088;13.732;2022-12-10T05:57:13;39.90;;;23.57;;
14992;SDS011;7592;51.088;13.732;2022-12-10T06:02:05;39.67;;;22.50;;
14992;SDS011;7592;51.088;13.732;2022-12-10T06:06:57;43.03;;;24.07;;
14992;SDS011;7592;51.088;13.732;2022-12-10T06:11:49;42.67;;;24.37;;
14992;SDS011;7592;51.088;13.732;2022-12-10T06:16:41;39.77;;;24.20;;
14992;SDS011;7592;51.088;13.732;2022-12-10T06:21:33;38.77;;;23.23;;
14992;SDS011;7592;51.088;13.732;2022-12-10T06:26:26;42.53;;;23.47;;
14992;SDS011;7592;51.088;13.732;2022-12-10T06:31:20;41.87;;;23.67;;
14992;SDS011;7592;51.088;13.732;2022-12-10T06:36:14;40.67;;;22.27;;
14992;SDS011;7592;51.088;13.732;2022-12-10T06:41:08;37.37;;;23.03;;
14992;SDS011;7592;51.088;13.732;2022-12-10T06:46:06;40.83;;;22.63;;
14992;SDS011;7592;51.088;13.732;2022-12-10T06:50:58;38.47;;;21.07;;
14992;SDS011;7592;51.088;13.732;2022-12-10T06:55:50;41.13;;;23.23;;
14992;SDS011;7592;51.088;13.732;2022-12-10T07:00:42;36.47;;;21.60;;
14992;SDS011;7592;51.088;13.732;2022-12-10T07:05:35;42.63;;;24.83;;
14992;SDS011;7592;51.088;13.732;2022-12-10T07:10:27;43.73;;;23.37;;
14992;SDS011;7592;51.088;13.732;2022-12-10T07:15:19;43.23;;;24.43;;
14992;SDS011;7592;51.088;13.732;2022-12-10T07:20:11;39.83;;;23.70;;
14992;SDS011;7592;51.088;13.732;2022-12-10T07:25:03;43.70;;;23.87;;
14992;SDS011;7592;51.088;13.732;2022-12-10T07:29:56;41.13;;;24.80;;
14992;SDS011;7592;51.088;13.732;2022-12-10T07:34:49;41.70;;;23.83;;
14992;SDS011;7592;51.088;13.732;2022-12-10T07:39:41;44.23;;;23.73;;
14992;SDS011;7592;51.088;13.732;2022-12-10T07:44:34;39.17;;;22.07;;
14992;SDS011;7592;51.088;13.732;2022-12-10T07:49:26;46.93;;;24.77;;
14992;SDS011;7592;51.088;13.732;2022-12-10T07:54:18;42.83;;;23.90;;
14992;SDS011;7592;51.088;13.732;2022-12-10T07:59:10;48.63;;;26.47;;
14992;SDS011;7592;51.088;13.732;2022-12-10T08:04:02;54.87;;;28.50;;
14992;SDS011;7592;51.088;13.732;2022-12-10T08:08:55;47.20;;;26.30;;
14992;SDS011;7592;51.088;13.732;2022-12-10T08:13:50;41.93;;;24.20;;
14992;SDS011;7592;51.088;13.732;2022-12-10T08:18:47;44.77;;;24.30;;
14992;SDS011;7592;51.088;13.732;2022-12-10T08:23:40;44.63;;;24.93;;
14992;SDS011;7592;51.088;13.732;2022-12-10T08:28:33;51.17;;;28.17;;
14992;SDS011;7592;51.088;13.732;2022-12-10T08:33:26;53.67;;;24.77;;
14992;SDS011;7592;51.088;13.732;2022-12-10T08:38:18;41.93;;;23.47;;
14992;SDS011;7592;51.088;13.732;2022-12-10T08:43:10;43.20;;;24.73;;
14992;SDS011;7592;51.088;13.732;2022-12-10T08:48:02;41.70;;;22.63;;
14992;SDS011;7592;51.088;13.732;2022-12-10T08:52:54;45.63;;;24.60;;
14992;SDS011;7592;51.088;13.732;2022-12-10T08:57:46;47.77;;;27.70;;
14992;SDS011;7592;51.088;13.732;2022-12-10T09:02:38;48.47;;;27.03;;
14992;SDS011;7592;51.088;13.732;2022-12-10T09:07:30;48.93;;;28.90;;
14992;SDS011;7592;51.088;13.732;2022-12-10T09:12:22;45.40;;;26.83;;
14992;SDS011;7592;51.088;13.732;2022-12-10T09:17:17;47.43;;;26.00;;
14992;SDS011;7592;51.088;13.732;2022-12-10T09:22:09;51.93;;;27.53;;
14992;SDS011;7592;51.088;13.732;2022-12-10T09:27:02;41.10;;;24.33;;
14992;SDS011;7592;51.088;13.732;2022-12-10T09:31:54;47.23;;;28.17;;
14992;SDS011;7592;51.088;13.732;2022-12-10T09:36:47;39.73;;;23.93;;
14992;SDS011;7592;51.088;13.732;2022-12-10T09:51:47;41.07;;;24.50;;
14992;SDS011;7592;51.088;13.732;2022-12-10T09:56:39;35.93;;;22.70;;
14992;SDS011;7592;51.088;13.732;2022-12-10T10:01:32;42.30;;;23.80;;
14992;SDS011;7592;51.088;13.732;2022-12-10T10:06:26;38.50;;;22.80;;
14992;SDS011;7592;51.088;13.732;2022-12-10T10:11:25;36.57;;;21.67;;
14992;SDS011;7592;51.088;13.732;2022-12-10T10:21:19;41.60;;;24.97;;
14992;SDS011;7592;51.088;13.732;2022-12-10T10:26:14;42.93;;;25.80;;
14992;SDS011;7592;51.088;13.732;2022-12-10T10:31:18;40.20;;;25.60;;
14992;SDS011;7592;51.088;13.732;2022-12-10T10:36:13;42.03;;;26.60;;
14992;SDS011;7592;51.088;13.732;2022-12-10T10:53:45;31.17;;;20.10;;
14992;SDS011;7592;51.088;13.732;2022-12-10T10:58:45;29.53;;;20.10;;
14992;SDS011;7592;51.088;13.732;2022-12-10T11:03:47;29.07;;;19.53;;
14992;SDS011;7592;51.088;13.732;2022-12-10T11:08:42;31.20;;;21.03;;
14992;SDS011;7592;51.088;13.732;2022-12-10T11:13:36;28.40;;;20.03;;
14992;SDS011;7592;51.088;13.732;2022-12-10T11:18:40;27.20;;;19.27;;
14992;SDS011;7592;51.088;13.732;2022-12-10T11:23:38;28.97;;;19.50;;
14992;SDS011;7592;51.088;13.732;2022-12-10T11:33:56;30.67;;;18.77;;
14992;SDS011;7592;51.088;13.732;2022-12-10T11:49:38;27.03;;;18.43;;
14992;SDS011;7592;51.088;13.732;2022-12-10T11:59:55;26.27;;;18.23;;
14992;SDS011;7592;51.088;13.732;2022-12-10T12:20:13;29.40;;;21.50;;
14992;SDS011;7592;51.088;13.732;2022-12-10T12:25:20;25.80;;;18.90;;
14992;SDS011;7592;51.088;13.732;2022-12-10T12:30:19;26.40;;;18.53;;
14992;SDS011;7592;51.088;13.732;2022-12-10T12:40:39;25.93;;;17.90;;
14992;SDS011;7592;51.088;13.732;2022-12-10T12:45:38;26.10;;;16.83;;
14992;SDS011;7592;51.088;13.732;2022-12-10T12:50:43;24.13;;;17.00;;
14992;SDS011;7592;51.088;13.732;2022-12-10T12:55:58;23.37;;;16.87;;
14992;SDS011;7592;51.088;13.732;2022-12-10T13:01:47;24.07;;;16.80;;
14992;SDS011;7592;51.088;13.732;2022-12-10T13:11:18;23.57;;;16.60;;
14992;SDS011;7592;51.088;13.732;2022-12-10T13:16:35;29.13;;;18.10;;
14992;SDS011;7592;51.088;13.732;2022-12-10T13:21:37;27.50;;;17.90;;
14992;SDS011;7592;51.088;13.732;2022-12-10T13:32:12;27.63;;;18.47;;
14992;SDS011;7592;51.088;13.732;2022-12-10T13:42:26;25.17;;;16.67;;
14992;SDS011;7592;51.088;13.732;2022-12-10T13:47:45;30.93;;;20.53;;
14992;SDS011;7592;51.088;13.732;2022-12-10T14:08:39;42.33;;;24.37;;
14992;SDS011;7592;51.088;13.732;2022-12-10T14:13:53;26.07;;;17.57;;
14992;SDS011;7592;51.088;13.732;2022-12-10T14:18:58;23.67;;;17.73;;
14992;SDS011;7592;51.088;13.732;2022-12-10T14:23:52;23.53;;;16.33;;
14992;SDS011;7592;51.088;13.732;2022-12-10T14:28:55;25.60;;;18.70;;
14992;SDS011;7592;51.088;13.732;2022-12-10T14:33:57;26.13;;;18.27;;
14992;SDS011;7592;51.088;13.732;2022-12-10T14:38:56;31.87;;;20.80;;
14992;SDS011;7592;51.088;13.732;2022-12-10T14:43:57;32.20;;;22.43;;
14992;SDS011;7592;51.088;13.732;2022-12-10T14:48:55;28.37;;;19.90;;
14992;SDS011;7592;51.088;13.732;2022-12-10T14:53:52;28.20;;;19.53;;
14992;SDS011;7592;51.088;13.732;2022-12-10T15:03:44;32.13;;;21.00;;
14992;SDS011;7592;51.088;13.732;2022-12-10T15:08:38;29.37;;;19.57;;
14992;SDS011;7592;51.088;13.732;2022-12-10T15:13:43;30.80;;;20.10;;
14992;SDS011;7592;51.088;13.732;2022-12-10T15:18:39;34.40;;;21.13;;
14992;SDS011;7592;51.088;13.732;2022-12-10T15:23:33;33.70;;;20.17;;
14992;SDS011;7592;51.088;13.732;2022-12-10T15:28:30;33.10;;;22.20;;
14992;SDS011;7592;51.088;13.732;2022-12-10T15:33:27;33.50;;;21.27;;
14992;SDS011;7592;51.088;13.732;2022-12-10T15:38:23;36.40;;;24.03;;
14992;SDS011;7592;51.088;13.732;2022-12-10T15:43:29;32.43;;;22.53;;
14992;SDS011;7592;51.088;13.732;2022-12-10T15:48:21;34.17;;;22.27;;
14992;SDS011;7592;51.088;13.732;2022-12-10T15:53:27;35.10;;;22.27;;
14992;SDS011;7592;51.088;13.732;2022-12-10T15:58:26;33.63;;;21.53;;
14992;SDS011;7592;51.088;13.732;2022-12-10T16:03:18;34.13;;;22.27;;
14992;SDS011;7592;51.088;13.732;2022-12-10T16:13:15;33.37;;;22.67;;
14992;SDS011;7592;51.088;13.732;2022-12-10T16:18:11;40.67;;;24.67;;
14992;SDS011;7592;51.088;13.732;2022-12-10T16:23:04;33.97;;;23.30;;
14992;SDS011;7592;51.088;13.732;2022-12-10T16:27:57;34.73;;;23.10;;
14992;SDS011;7592;51.088;13.732;2022-12-10T16:32:50;32.93;;;21.93;;
14992;SDS011;7592;51.088;13.732;2022-12-10T16:37:43;35.90;;;22.90;;
14992;SDS011;7592;51.088;13.732;2022-12-10T16:42:36;37.33;;;26.87;;
14992;SDS011;7592;51.088;13.732;2022-12-10T16:47:28;41.77;;;23.53;;
14992;SDS011;7592;51.088;13.732;2022-12-10T16:52:20;37.40;;;24.83;;
14992;SDS011;7592;51.088;13.732;2022-12-10T16:57:14;36.73;;;23.20;;
14992;SDS011;7592;51.088;13.732;2022-12-10T17:02:14;40.70;;;24.30;;
14992;SDS011;7592;51.088;13.732;2022-12-10T17:07:08;36.97;;;23.50;;
14992;SDS011;7592;51.088;13.732;2022-12-10T17:12:07;35.03;;;23.20;;
14992;SDS011;7592;51.088;13.732;2022-12-10T17:17:00;35.77;;;22.20;;
14992;SDS011;7592;51.088;13.732;2022-12-10T17:21:58;37.17;;;24.63;;
14992;SDS011;7592;51.088;13.732;2022-12-10T17:26:51;35.73;;;24.53;;
14992;SDS011;7592;51.088;13.732;2022-12-10T17:31:47;34.40;;;23.53;;
14992;SDS011;7592;51.088;13.732;2022-12-10T17:36:40;36.00;;;23.27;;
14992;SDS011;7592;51.088;13.732;2022-12-10T17:41:32;33.87;;;23.63;;
14992;SDS011;7592;51.088;13.732;2022-12-10T17:46:25;37.03;;;23.23;;
14992;SDS011;7592;51.088;13.732;2022-12-10T17:51:17;41.13;;;24.77;;
14992;SDS011;7592;51.088;13.732;2022-12-10T17:56:15;38.67;;;25.37;;
14992;SDS011;7592;51.088;13.732;2022-12-10T18:01:09;54.10;;;35.97;;
14992;SDS011;7592;51.088;13.732;2022-12-10T18:06:03;49.70;;;32.83;;
14992;SDS011;7592;51.088;13.732;2022-12-10T18:10:56;42.53;;;26.60;;
14992;SDS011;7592;51.088;13.732;2022-12-10T18:15:49;43.57;;;26.10;;
14992;SDS011;7592;51.088;13.732;2022-12-10T18:20:41;47.07;;;30.50;;
14992;SDS011;7592;51.088;13.732;2022-12-10T18:25:33;45.53;;;31.13;;
14992;SDS011;7592;51.088;13.732;2022-12-10T18:30:26;44.10;;;28.43;;
14992;SDS011;7592;51.088;13.732;2022-12-10T18:35:19;41.23;;;26.60;;
14992;SDS011;7592;51.088;13.732;2022-12-10T18:40:16;43.33;;;26.10;;
14992;SDS011;7592;51.088;13.732;2022-12-10T18:45:10;38.73;;;24.77;;
14992;SDS011;7592;51.088;13.732;2022-12-10T18:50:21;40.50;;;25.80;;
14992;SDS011;7592;51.088;13.732;2022-12-10T18:55:15;37.13;;;25.63;;
14992;SDS011;7592;51.088;13.732;2022-12-10T19:00:14;39.97;;;24.90;;
14992;SDS011;7592;51.088;13.732;2022-12-10T19:05:09;39.27;;;23.57;;
14992;SDS011;7592;51.088;13.732;2022-12-10T19:10:02;35.93;;;23.83;;
14992;SDS011;7592;51.088;13.732;2022-12-10T19:14:55;39.67;;;24.80;;
14992;SDS011;7592;51.088;13.732;2022-12-10T19:19:47;37.83;;;24.00;;
14992;SDS011;7592;51.088;13.732;2022-12-10T19:24:39;39.67;;;25.57;;
14992;SDS011;7592;51.088;13.732;2022-12-10T19:29:32;42.30;;;25.57;;
14992;SDS011;7592;51.088;13.732;2022-12-10T19:34:24;34.23;;;22.77;;
14992;SDS011;7592;51.088;13.732;2022-12-10T19:39:19;34.47;;;23.03;;
14992;SDS011;7592;51.088;13.732;2022-12-10T19:44:14;39.13;;;23.70;;
14992;SDS011;7592;51.088;13.732;2022-12-10T19:49:09;39.83;;;24.80;;
14992;SDS011;7592;51.088;13.732;2022-12-10T19:54:05;35.53;;;23.87;;
14992;SDS011;7592;51.088;13.732;2022-12-10T19:59:05;32.90;;;22.43;;
14992;SDS011;7592;51.088;13.732;2022-12-10T20:04:14;32.47;;;21.33;;
14992;SDS011;7592;51.088;13.732;2022-12-10T20:09:25;33.67;;;23.30;;
14992;SDS011;7592;51.088;13.732;2022-12-10T20:14:18;32.00;;;20.97;;
14992;SDS011;7592;51.088;13.732;2022-12-10T20:19:14;31.63;;;21.80;;
14992;SDS011;7592;51.088;13.732;2022-12-10T20:24:12;33.10;;;22.40;;
14992;SDS011;7592;51.088;13.732;2022-12-10T20:29:08;34.20;;;22.23;;
14992;SDS011;7592;51.088;13.732;2022-12-10T20:34:24;34.80;;;22.40;;
14992;SDS011;7592;51.088;13.732;2022-12-10T20:39:18;36.37;;;22.53;;
14992;SDS011;7592;51.088;13.732;2022-12-10T20:44:15;34.53;;;22.27;;
14992;SDS011;7592;51.088;13.732;2022-12-10T20:49:11;32.77;;;21.50;;
14992;SDS011;7592;51.088;13.732;2022-12-10T20:54:04;31.77;;;20.80;;
14992;SDS011;7592;51.088;13.732;2022-12-10T20:58:57;32.47;;;21.73;;
14992;SDS011;7592;51.088;13.732;2022-12-10T21:03:50;32.37;;;22.33;;
14992;SDS011;7592;51.088;13.732;2022-12-10T21:08:43;31.97;;;20.57;;
14992;SDS011;7592;51.088;13.732;2022-12-10T21:13:35;30.37;;;21.20;;
14992;SDS011;7592;51.088;13.732;2022-12-10T21:18:28;30.00;;;20.70;;
14992;SDS011;7592;51.088;13.732;2022-12-10T21:23:22;30.33;;;19.77;;
14992;SDS011;7592;51.088;13.732;2022-12-10T21:28:16;31.30;;;20.07;;
14992;SDS011;7592;51.088;13.732;2022-12-10T21:33:09;32.03;;;21.10;;
14992;SDS011;7592;51.088;13.732;2022-12-10T21:38:02;31.23;;;21.57;;
14992;SDS011;7592;51.088;13.732;2022-12-10T21:42:56;31.27;;;21.27;;
14992;SDS011;7592;51.088;13.732;2022-12-10T21:48:06;32.20;;;19.57;;
14992;SDS011;7592;51.088;13.732;2022-12-10T21:52:59;31.80;;;21.23;;
14992;SDS011;7592;51.088;13.732;2022-12-10T21:57:51;29.73;;;19.57;;
14992;SDS011;7592;51.088;13.732;2022-12-10T22:02:43;33.20;;;21.33;;
14992;SDS011;7592;51.088;13.732;2022-12-10T22:07:37;33.20;;;19.70;;
14992;SDS011;7592;51.088;13.732;2022-12-10T22:12:30;32.80;;;21.13;;
14992;SDS011;7592;51.088;13.732;2022-12-10T22:17:23;35.07;;;21.33;;
14992;SDS011;7592;51.088;13.732;2022-12-10T22:22:16;31.97;;;19.87;;
14992;SDS011;7592;51.088;13.732;2022-12-10T22:27:09;34.77;;;21.70;;
14992;SDS011;7592;51.088;13.732;2022-12-10T22:32:01;31.83;;;19.40;;
14992;SDS011;7592;51.088;13.732;2022-12-10T22:36:55;30.33;;;19.43;;
14992;SDS011;7592;51.088;13.732;2022-12-10T22:41:47;30.53;;;19.47;;
14992;SDS011;7592;51.088;13.732;2022-12-10T22:46:40;32.00;;;20.03;;
14992;SDS011;7592;51.088;13.732;2022-12-10T22:51:33;33.80;;;21.00;;
14992;SDS011;7592;51.088;13.732;2022-12-10T22:56:27;34.67;;;21.70;;
14992;SDS011;7592;51.088;13.732;2022-12-10T23:01:21;30.87;;;19.47;;
14992;SDS011;7592;51.088;13.732;2022-12-10T23:06:15;33.97;;;21.50;;
14992;SDS011;7592;51.088;13.732;2022-12-10T23:11:08;30.80;;;20.83;;
14992;SDS011;7592;51.088;13.732;2022-12-10T23:16:17;27.23;;;18.63;;
14992;SDS011;7592;51.088;13.732;2022-12-10T23:21:14;29.30;;;19.57;;
14992;SDS011;7592;51.088;13.732;2022-12-10T23:26:11;33.53;;;20.47;;
14992;SDS011;7592;51.088;13.732;2022-12-10T23:31:03;28.50;;;18.37;;
14992;SDS011;7592;51.088;13.732;2022-12-10T23:35:57;32.73;;;21.00;;
14992;SDS011;7592;51.088;13.732;2022-12-10T23:40:49;31.07;;;20.37;;
14992;SDS011;7592;51.088;13.732;2022-12-10T23:45:42;32.50;;;21.13;;
14992;SDS011;7592;51.088;13.732;2022-12-10T23:50:34;33.00;;;21.17;;
14992;SDS011;7592;51.088;13.732;2022-12-10T23:55:27;31.83;;;21.10;;
